Time;durP1;ratioP1;P1;durP2;ratioP2;P2;SDS_P1;SDS_P2;PMS_P1;PMS_P2;Temp;Humidity;BMP_temperature;BMP_pressure;BME280_temperature;BME280_humidity;BME280_pressure;Samples;Min_cycle;Max_cycle;Signal;HPM_P1;HPM_P2
2021/06/26 00:02:52;;;;;;;3.03;0.50;;;;;;;22.10;42.89;100489.31;5054987;28;20059;-81
2021/06/26 00:05:57;;;;;;;3.92;0.70;;;;;;;22.12;42.33;100495.41;5054423;28;20048;-80
2021/06/26 00:09:02;;;;;;;2.47;0.50;;;;;;;22.16;42.37;100487.66;5054007;28;20060;-79
2021/06/26 00:12:07;;;;;;;4.03;0.60;;;;;;;22.24;41.97;100482.00;5053928;28;20060;-80
2021/06/26 00:15:12;;;;;;;2.35;0.50;;;;;;;22.21;41.86;100486.00;5053905;28;20044;-80
2021/06/26 00:18:17;;;;;;;2.25;0.40;;;;;;;22.19;42.27;100484.53;5053308;28;20044;-80
2021/06/26 00:21:21;;;;;;;3.15;0.60;;;;;;;22.28;41.51;100486.00;5054557;28;20052;-81
2021/06/26 00:24:26;;;;;;;2.30;0.60;;;;;;;22.26;41.60;100491.69;5054552;28;20071;-80
2021/06/26 00:27:38;;;;;;;3.45;0.77;;;;;;;22.33;41.70;100484.34;5053709;28;20060;-80
2021/06/26 00:30:42;;;;;;;4.00;0.90;;;;;;;22.42;41.43;100488.56;5054454;28;20056;-81
2021/06/26 00:33:47;;;;;;;2.85;1.08;;;;;;;22.43;41.38;100484.78;5054342;28;20064;-80
2021/06/26 00:36:51;;;;;;;2.42;0.95;;;;;;;22.55;40.71;100485.84;5054327;28;20048;-80
2021/06/26 00:39:56;;;;;;;3.20;1.38;;;;;;;22.50;40.69;100479.31;5054271;28;20064;-79
2021/06/26 00:43:00;;;;;;;4.50;1.30;;;;;;;22.56;40.48;100486.69;5054149;28;20506;-80
2021/06/26 00:46:05;;;;;;;2.17;0.80;;;;;;;22.45;39.83;100474.47;5054095;28;20056;-80
2021/06/26 00:49:09;;;;;;;3.40;0.63;;;;;;;22.17;40.39;100476.50;5054105;28;20071;-80
2021/06/26 00:52:13;;;;;;;2.95;0.82;;;;;;;21.99;39.96;100468.06;5054219;28;20044;-80
2021/06/26 00:55:19;;;;;;;4.57;1.05;;;;;;;21.84;40.23;100473.66;5053750;28;20495;-78
2021/06/26 00:58:24;;;;;;;3.75;0.60;;;;;;;21.82;40.53;100474.91;5054161;28;20071;-80
2021/06/26 01:01:28;;;;;;;3.42;0.50;;;;;;;21.92;40.48;100475.41;5053069;28;20059;-79
2021/06/26 01:04:33;;;;;;;3.38;0.65;;;;;;;21.93;40.10;100477.06;5053829;28;20043;-80
2021/06/26 01:07:38;;;;;;;0.90;0.40;;;;;;;21.97;40.40;100481.09;5051965;28;20538;-79
2021/06/26 01:10:43;;;;;;;2.03;0.57;;;;;;;21.92;40.08;100483.59;5053711;28;20044;-79
2021/06/26 01:13:47;;;;;;;1.48;0.70;;;;;;;22.09;39.91;100493.13;5053648;28;20044;-80
2021/06/26 01:16:52;;;;;;;1.88;0.50;;;;;;;22.15;39.50;100486.81;5053713;28;20095;-80
2021/06/26 01:19:56;;;;;;;1.38;0.40;;;;;;;21.95;39.60;100496.84;5053713;28;20111;-79
2021/06/26 01:23:01;;;;;;;1.33;0.40;;;;;;;21.86;39.97;100492.59;5053651;28;20041;-80
2021/06/26 01:26:11;;;;;;;5.45;0.60;;;;;;;21.62;40.35;100490.38;5052783;28;20052;-80
2021/06/26 01:29:16;;;;;;;1.73;0.40;;;;;;;21.52;40.91;100487.16;5052818;28;20052;-80
2021/06/26 01:32:21;;;;;;;1.75;0.50;;;;;;;21.47;41.10;100500.59;5053370;28;20060;-80
2021/06/26 01:35:26;;;;;;;4.00;0.47;;;;;;;21.58;41.05;100492.66;5053337;28;20052;-81
2021/06/26 01:38:30;;;;;;;1.92;0.50;;;;;;;21.73;40.82;100497.97;5053251;28;20044;-81
2021/06/26 01:41:35;;;;;;;1.85;0.47;;;;;;;21.85;40.71;100493.69;5053260;28;20384;-80
2021/06/26 01:44:40;;;;;;;3.25;0.65;;;;;;;21.87;40.69;100491.56;5053458;28;20044;-81
2021/06/26 01:47:47;;;;;;;4.35;0.95;;;;;;;21.76;40.88;100497.56;5053462;28;20052;-80
2021/06/26 01:50:52;;;;;;;1.30;0.30;;;;;;;21.77;41.11;100488.34;5053391;28;20396;-80
2021/06/26 01:53:56;;;;;;;1.40;0.45;;;;;;;21.87;41.12;100489.66;5053405;28;20056;-80
2021/06/26 01:57:01;;;;;;;3.95;1.05;;;;;;;21.74;41.38;100495.06;5052568;28;20069;-79
2021/06/26 02:00:06;;;;;;;3.17;1.00;;;;;;;21.53;41.36;100499.78;5053368;28;20056;-80
2021/06/26 02:03:16;;;;;;;5.28;1.38;;;;;;;21.39;41.62;100496.13;5052576;28;20068;-79
2021/06/26 02:06:21;;;;;;;4.00;1.30;;;;;;;21.28;42.11;100494.78;5053484;28;20051;-80
2021/06/26 02:09:25;;;;;;;5.18;1.55;;;;;;;21.27;42.17;100492.25;5052767;28;20467;-80
2021/06/26 02:12:29;;;;;;;9.77;2.38;;;;;;;21.12;42.59;100489.66;5052703;28;20048;-80
2021/06/26 02:15:34;;;;;;;7.75;2.20;;;;;;;20.95;42.67;100480.03;5052660;28;20052;-80
2021/06/26 02:18:38;;;;;;;6.53;2.20;;;;;;;21.05;43.08;100491.50;5055636;28;20392;-80
2021/06/26 02:21:43;;;;;;;8.55;3.63;;;;;;;21.03;42.41;100487.25;5056993;28;20060;-81
2021/06/26 02:24:47;;;;;;;9.35;4.63;;;;;;;20.67;43.16;100498.28;5056937;28;20040;-79
2021/06/26 02:27:51;;;;;;;17.75;7.47;;;;;;;20.54;43.92;100492.72;5056658;28;20045;-79
2021/06/26 02:30:56;;;;;;;14.50;6.68;;;;;;;20.74;44.22;100507.34;5056843;28;20052;-80
2021/06/26 02:34:00;;;;;;;8.57;4.68;;;;;;;20.96;43.39;100511.72;5055846;28;20116;-80
2021/06/26 02:37:05;;;;;;;7.30;3.40;;;;;;;21.10;43.00;100510.00;5056506;28;20048;-79
2021/06/26 02:40:10;;;;;;;8.05;1.40;;;;;;;21.14;43.21;100509.41;5056064;28;20060;-80
2021/06/26 02:43:14;;;;;;;3.63;1.15;;;;;;;21.29;43.11;100509.28;5055559;28;20049;-79
2021/06/26 02:46:18;;;;;;;3.03;0.80;;;;;;;21.36;43.31;100507.44;5056057;28;20056;-79
2021/06/26 02:49:23;;;;;;;3.53;0.70;;;;;;;21.35;43.40;100508.50;5056244;28;20052;-80
2021/06/26 02:52:27;;;;;;;3.10;0.70;;;;;;;21.22;44.03;100506.53;5056283;28;20048;-81
2021/06/26 02:55:32;;;;;;;2.65;0.60;;;;;;;21.22;44.15;100506.53;5056157;28;20060;-80
2021/06/26 02:58:36;;;;;;;6.85;0.70;;;;;;;20.97;44.59;100507.97;5056385;28;20060;-80
2021/06/26 03:01:40;;;;;;;6.30;0.80;;;;;;;20.74;45.30;100500.00;5056159;28;20120;-80
2021/06/26 03:04:44;;;;;;;3.20;0.60;;;;;;;20.65;45.50;100503.09;5055990;28;20052;-80
2021/06/26 03:07:52;;;;;;;5.88;1.40;;;;;;;20.67;45.52;100504.56;5055024;28;20048;-81
2021/06/26 03:10:56;;;;;;;5.88;0.82;;;;;;;20.72;45.77;100512.16;5035828;28;20056;-81
2021/06/26 03:14:01;;;;;;;3.65;0.70;;;;;;;20.72;45.73;100506.72;5035820;28;20060;-78
2021/06/26 03:17:05;;;;;;;2.65;0.60;;;;;;;20.80;45.77;100509.31;5035616;28;20065;-80
2021/06/26 03:20:10;;;;;;;7.90;0.65;;;;;;;20.94;45.67;100512.97;5035748;28;20396;-77
2021/06/26 03:23:14;;;;;;;5.45;0.80;;;;;;;20.94;45.36;100522.00;5035762;28;20392;-80
2021/06/26 03:26:19;;;;;;;2.70;0.70;;;;;;;20.67;46.23;100520.09;5035757;28;20495;-79
2021/06/26 03:29:24;;;;;;;1.83;0.47;;;;;;;20.47;46.97;100517.19;5034555;28;20068;-78
2021/06/26 03:32:28;;;;;;;2.45;0.60;;;;;;;20.22;47.55;100506.81;5023281;28;20073;-79
2021/06/26 03:35:33;;;;;;;5.40;0.90;;;;;;;19.96;48.53;100510.94;5034608;28;20064;-80
2021/06/26 03:38:37;;;;;;;3.58;1.10;;;;;;;20.00;48.50;100514.94;5035413;28;20057;-81
2021/06/26 03:41:41;;;;;;;2.72;1.00;;;;;;;20.02;48.13;100520.22;5035366;28;20048;-80
2021/06/26 03:44:46;;;;;;;4.43;1.15;;;;;;;19.96;48.16;100530.00;5034537;28;20069;-79
2021/06/26 03:47:50;;;;;;;33.75;26.42;;;;;;;19.86;48.06;100523.16;5035224;28;20052;-78
2021/06/26 03:50:59;;;;;;;12.07;8.05;;;;;;;19.82;48.11;100532.75;5035219;28;20041;-77
2021/06/26 03:54:04;;;;;;;4.15;2.13;;;;;;;19.69;48.73;100527.13;5047487;28;20494;-79
2021/06/26 03:57:08;;;;;;;2.38;0.88;;;;;;;19.76;48.59;100525.31;5055169;28;20047;-79
2021/06/26 04:00:13;;;;;;;2.97;0.93;;;;;;;19.67;48.94;100530.03;5055075;28;20044;-81
2021/06/26 04:03:17;;;;;;;7.53;1.50;;;;;;;19.76;48.78;100531.63;5054677;28;20096;-80
2021/06/26 04:06:22;;;;;;;4.95;0.90;;;;;;;19.75;49.20;100535.38;5053353;28;20056;-79
2021/06/26 04:09:26;;;;;;;3.05;0.80;;;;;;;19.85;49.22;100538.66;5049950;28;20115;-79
2021/06/26 04:12:30;;;;;;;3.75;0.98;;;;;;;20.02;48.74;100537.41;5055069;28;20052;-80
2021/06/26 04:15:35;;;;;;;3.95;1.00;;;;;;;20.01;48.78;100537.59;5053840;28;20404;-79
2021/06/26 04:18:40;;;;;;;6.68;1.00;;;;;;;20.20;48.51;100536.13;5054684;28;20044;-81
2021/06/26 04:21:44;;;;;;;1.95;0.60;;;;;;;20.35;48.21;100540.53;5054571;28;20048;-80
2021/06/26 04:24:48;;;;;;;2.58;0.70;;;;;;;20.41;48.27;100544.38;5054573;28;20060;-80
2021/06/26 04:27:54;;;;;;;3.25;0.88;;;;;;;20.54;48.10;100555.44;5054500;28;20060;-79
2021/06/26 04:30:58;;;;;;;1.75;0.50;;;;;;;20.69;48.04;100558.94;5054487;28;20048;-78
2021/06/26 04:34:02;;;;;;;4.43;0.82;;;;;;;20.98;47.69;100560.69;5053602;28;20060;-79
2021/06/26 04:37:07;;;;;;;3.60;0.60;;;;;;;20.96;47.67;100551.84;5054278;28;20040;-78
2021/06/26 04:40:13;;;;;;;6.28;0.70;;;;;;;21.18;47.05;100559.81;5052909;28;20514;-80
2021/06/26 04:43:18;;;;;;;3.80;0.65;;;;;;;21.53;46.57;100548.97;5053274;28;20400;-80
2021/06/26 04:46:22;;;;;;;2.63;0.70;;;;;;;21.85;46.31;100562.00;5054217;28;20072;-79
2021/06/26 04:49:26;;;;;;;5.13;0.75;;;;;;;22.42;45.23;100567.88;5054117;28;20068;-79
2021/06/26 04:52:31;;;;;;;4.43;0.80;;;;;;;23.05;43.70;100571.19;5053816;28;20048;-80
2021/06/26 04:55:35;;;;;;;4.07;0.85;;;;;;;23.67;42.64;100571.59;5054037;28;20056;-79
2021/06/26 04:58:40;;;;;;;5.60;0.80;;;;;;;23.64;42.91;100577.50;5053765;28;20068;-79
2021/06/26 05:01:44;;;;;;;3.95;0.70;;;;;;;24.21;42.08;100564.91;5054030;28;20056;-80
2021/06/26 05:04:49;;;;;;;3.08;0.85;;;;;;;24.45;41.68;100561.41;5052872;28;20052;-80
2021/06/26 05:07:53;;;;;;;3.25;0.60;;;;;;;25.01;40.68;100567.81;5052909;28;20048;-81
2021/06/26 05:10:58;;;;;;;4.50;0.70;;;;;;;25.31;39.92;100561.66;5053937;28;20052;-80
2021/06/26 05:14:02;;;;;;;3.47;0.43;;;;;;;25.80;39.16;100559.69;5052968;28;20495;-78
2021/06/26 05:17:06;;;;;;;2.58;0.65;;;;;;;26.94;37.47;100572.59;5038089;28;20047;-78
2021/06/26 05:20:14;;;;;;;4.47;0.90;;;;;;;27.21;36.94;100562.00;5053259;28;20056;-80
2021/06/26 05:23:19;;;;;;;5.97;0.90;;;;;;;27.08;37.99;100574.91;5053590;28;20060;-80
2021/06/26 05:26:24;;;;;;;9.07;1.00;;;;;;;28.05;36.35;100573.41;5053601;28;20496;-80
2021/06/26 05:29:28;;;;;;;3.55;0.60;;;;;;;28.83;34.61;100570.88;5053744;28;20052;-80
2021/06/26 05:32:33;;;;;;;3.00;0.82;;;;;;;29.96;32.63;100575.22;5053380;28;20067;-80
2021/06/26 05:35:37;;;;;;;4.80;0.63;;;;;;;30.83;31.68;100573.25;5053645;28;20056;-80
2021/06/26 05:38:41;;;;;;;2.72;0.75;;;;;;;32.60;29.42;100573.38;5052871;28;20052;-80
2021/06/26 05:41:46;;;;;;;4.03;0.68;;;;;;;34.18;27.44;100569.47;5053869;28;20067;-80
2021/06/26 05:44:50;;;;;;;4.20;0.60;;;;;;;35.21;26.29;100568.31;5053646;28;20380;-81
2021/06/26 05:47:55;;;;;;;2.70;0.60;;;;;;;35.74;25.61;100574.84;5053571;28;20044;-80
2021/06/26 05:50:59;;;;;;;3.45;0.60;;;;;;;36.30;25.44;100566.66;5053553;28;20052;-81
2021/06/26 05:54:04;;;;;;;3.80;0.70;;;;;;;37.24;24.24;100561.94;5054664;28;20052;-81
2021/06/26 05:57:08;;;;;;;2.78;0.80;;;;;;;38.69;23.32;100563.00;5055902;28;20072;-80
2021/06/26 06:00:15;;;;;;;6.10;0.75;;;;;;;39.41;22.76;100560.16;5057377;28;20068;-80
2021/06/26 06:03:21;;;;;;;4.10;0.80;;;;;;;40.93;21.40;100577.19;5056521;28;20052;-81
2021/06/26 06:06:25;;;;;;;7.60;1.00;;;;;;;42.04;20.07;100570.50;5057534;28;20045;-80
2021/06/26 06:09:30;;;;;;;6.45;0.90;;;;;;;42.21;20.14;100572.44;5057410;28;20048;-81
2021/06/26 06:12:35;;;;;;;6.00;1.40;;;;;;;42.92;19.79;100581.81;5056864;28;20048;-82
2021/06/26 06:15:44;;;;;;;3.13;1.00;;;;;;;42.36;20.43;100581.16;5049370;28;20522;-80
2021/06/26 06:18:48;;;;;;;8.93;1.55;;;;;;;44.46;18.97;100580.94;5036214;28;20053;-79
2021/06/26 06:21:52;;;;;;;3.47;1.30;;;;;;;45.57;17.76;100588.78;5042977;28;20044;-79
2021/06/26 06:24:57;;;;;;;6.15;1.45;;;;;;;45.63;18.32;100588.19;5048901;28;20044;-80
2021/06/26 06:28:02;;;;;;;5.25;1.20;;;;;;;45.96;17.73;100593.53;5043360;28;20052;-81
2021/06/26 06:31:07;;;;;;;7.15;1.35;;;;;;;46.84;17.68;100589.25;5036642;28;20064;-75
2021/06/26 06:34:11;;;;;;;3.28;1.25;;;;;;;47.21;16.97;100584.78;5041153;28;20052;-81
2021/06/26 06:37:16;;;;;;;3.70;1.42;;;;;;;47.49;17.03;100581.72;5048257;28;20056;-84
2021/06/26 06:40:21;;;;;;;3.85;1.42;;;;;;;47.98;16.66;100585.50;5066219;28;20068;-82
2021/06/26 06:43:26;;;;;;;5.75;1.27;;;;;;;48.13;16.75;100589.41;5076022;28;20554;-84
2021/06/26 06:46:30;;;;;;;5.68;1.30;;;;;;;48.24;16.35;100584.75;5048168;28;20116;-83
2021/06/26 06:49:35;;;;;;;4.63;1.27;;;;;;;46.11;17.31;100592.75;5035879;28;20049;-83
2021/06/26 06:52:39;;;;;;;9.77;1.60;;;;;;;46.26;17.72;100586.22;5034524;28;20404;-84
2021/06/26 06:55:50;;;;;;;7.18;1.77;;;;;;;46.51;17.30;100595.38;5034602;28;20049;-83
2021/06/26 06:58:54;;;;;;;4.95;1.50;;;;;;;47.96;16.91;100587.09;5037381;28;20044;-84
2021/06/26 07:01:58;;;;;;;3.72;1.35;;;;;;;48.74;16.14;100581.47;5036155;28;20076;-83
2021/06/26 07:05:04;;;;;;;7.60;1.48;;;;;;;49.31;15.63;100593.69;5057788;28;20056;-82
2021/06/26 07:08:09;;;;;;;5.22;1.60;;;;;;;50.38;15.31;100593.53;5057852;28;20056;-83
2021/06/26 07:11:13;;;;;;;6.15;1.88;;;;;;;49.75;15.51;100594.59;5048153;28;20055;-84
2021/06/26 07:14:17;;;;;;;7.07;1.75;;;;;;;50.08;15.09;100590.81;5055507;28;20060;-81
2021/06/26 07:17:22;;;;;;;4.28;1.67;;;;;;;50.59;15.49;100588.00;5054066;28;20514;-83
2021/06/26 07:20:26;;;;;;;8.10;2.00;;;;;;;50.87;14.63;100590.22;5055352;28;20099;-81
2021/06/26 07:23:32;;;;;;;9.40;2.17;;;;;;;50.75;15.39;100592.19;5053305;28;20060;-80
2021/06/26 07:26:37;;;;;;;6.15;1.60;;;;;;;51.10;14.94;100593.59;5048020;28;20408;-81
2021/06/26 07:29:41;;;;;;;7.75;1.90;;;;;;;50.43;15.07;100596.03;5033747;28;20057;-80
2021/06/26 07:32:46;;;;;;;7.03;1.60;;;;;;;51.22;14.86;100596.91;5033535;28;20495;-80
2021/06/26 07:35:51;;;;;;;5.65;1.98;;;;;;;49.22;16.29;100591.13;5033358;28;20515;-80
2021/06/26 07:38:55;;;;;;;6.97;1.95;;;;;;;50.51;15.22;100584.25;5033358;28;20053;-80
2021/06/26 07:41:59;;;;;;;5.72;1.95;;;;;;;51.63;14.63;100585.22;5033255;28;20404;-81
2021/06/26 07:45:05;;;;;;;8.43;1.90;;;;;;;51.14;15.28;100588.69;5033895;28;20044;-78
2021/06/26 07:48:09;;;;;;;7.97;2.08;;;;;;;50.31;15.63;100588.59;5035030;28;20040;-78
2021/06/26 07:51:14;;;;;;;5.90;1.50;;;;;;;51.91;14.68;100588.13;5057376;28;20049;-79
2021/06/26 07:54:19;;;;;;;8.70;1.95;;;;;;;53.69;13.26;100590.97;5034902;28;20056;-79
2021/06/26 07:57:23;;;;;;;7.57;1.90;;;;;;;52.81;13.50;100584.78;5033318;28;20045;-80
2021/06/26 08:00:27;;;;;;;5.43;1.58;;;;;;;52.28;14.38;100574.25;5048615;28;20388;-80
2021/06/26 08:03:32;;;;;;;6.70;1.45;;;;;;;52.48;14.53;100578.31;5053263;28;20040;-82
2021/06/26 08:06:36;;;;;;;6.57;1.50;;;;;;;52.44;14.06;100570.94;5035498;28;20503;-80
2021/06/26 08:09:41;;;;;;;7.20;1.60;;;;;;;50.08;16.03;100577.38;5031376;28;20052;-81
2021/06/26 08:12:46;;;;;;;5.03;1.65;;;;;;;47.62;17.26;100574.66;5045017;28;20068;-80
2021/06/26 08:15:51;;;;;;;9.00;1.50;;;;;;;43.86;20.32;100580.91;5048041;28;20048;-81
2021/06/26 08:18:56;;;;;;;4.95;1.55;;;;;;;41.53;22.16;100559.41;5051258;28;20052;-81
2021/06/26 08:22:00;;;;;;;8.52;1.63;;;;;;;39.83;23.94;100567.19;5045283;28;20076;-80
2021/06/26 08:25:05;;;;;;;6.10;1.70;;;;;;;38.63;25.98;100558.69;5033265;28;20056;-80
2021/06/26 08:28:09;;;;;;;5.30;1.45;;;;;;;36.67;28.08;100570.66;5050805;28;20072;-80
2021/06/26 08:31:14;;;;;;;10.25;1.88;;;;;;;35.42;30.66;100566.19;5052297;28;20391;-80
2021/06/26 08:34:19;;;;;;;9.98;3.00;;;;;;;32.77;33.79;100562.00;5053049;28;20048;-79
2021/06/26 08:37:23;;;;;;;5.80;2.13;;;;;;;33.29;32.99;100562.66;5052562;28;20048;-80
2021/06/26 08:40:28;;;;;;;5.43;2.10;;;;;;;33.61;32.99;100567.94;5053046;28;20067;-81
2021/06/26 08:43:34;;;;;;;7.22;2.53;;;;;;;33.36;33.06;100551.22;5048475;28;20056;-79
2021/06/26 08:46:46;;;;;;;7.82;2.60;;;;;;;32.99;34.11;100562.59;5049080;28;20056;-80
2021/06/26 08:49:51;;;;;;;7.78;2.65;;;;;;;32.26;34.86;100558.25;5032596;28;20400;-79
2021/06/26 08:52:55;;;;;;;7.38;2.95;;;;;;;32.14;35.78;100566.81;5052056;28;20049;-80
2021/06/26 08:56:00;;;;;;;6.82;3.10;;;;;;;31.94;36.19;100565.84;5030664;28;20500;-79
2021/06/26 08:59:04;;;;;;;5.35;3.00;;;;;;;32.27;35.09;100573.78;5047926;28;20052;-80
2021/06/26 09:02:20;;;;;;;10.13;3.20;;;;;;;32.11;35.67;100563.72;5050503;28;20052;-79
2021/06/26 09:05:26;;;;;;;7.35;2.95;;;;;;;32.25;35.10;100567.66;5049997;28;20534;-79
2021/06/26 09:08:31;;;;;;;9.93;3.35;;;;;;;32.75;34.72;100562.31;5050652;28;20048;-78
2021/06/26 09:11:35;;;;;;;6.82;2.60;;;;;;;33.18;34.21;100562.94;5051855;28;20040;-79
2021/06/26 09:14:43;;;;;;;5.03;2.10;;;;;;;33.39;33.55;100553.44;5052009;28;20507;-79
2021/06/26 09:17:48;;;;;;;5.63;1.90;;;;;;;33.45;33.58;100560.69;5051791;28;20424;-79
2021/06/26 09:20:55;;;;;;;6.88;2.47;;;;;;;33.41;33.32;100562.34;5052334;28;20044;-79
2021/06/26 09:24:06;;;;;;;7.97;2.63;;;;;;;32.78;34.11;100564.53;5052129;28;20056;-78
2021/06/26 09:27:12;;;;;;;11.82;2.58;;;;;;;32.74;34.62;100563.41;5052319;28;20368;-78
2021/06/26 09:30:18;;;;;;;13.10;2.88;;;;;;;31.94;36.01;100557.50;5057087;28;20060;-79
2021/06/26 09:33:24;;;;;;;9.48;2.25;;;;;;;32.24;35.64;100552.13;5056470;28;20067;-78
2021/06/26 09:36:32;;;;;;;9.32;2.40;;;;;;;32.32;34.91;100542.44;5056118;28;20099;-79
2021/06/26 09:39:44;;;;;;;8.25;2.03;;;;;;;32.49;35.15;100534.69;5063438;28;20333;-78
2021/06/26 09:42:54;;;;;;;27.83;4.00;;;;;;;32.15;36.76;100531.50;5056189;28;20060;-78
2021/06/26 09:46:05;;;;;;;7.30;2.80;;;;;;;31.49;36.96;100536.69;5056668;28;20483;-78
2021/06/26 09:49:10;;;;;;;7.72;2.83;;;;;;;31.28;37.30;100545.94;5055921;28;20052;-79
2021/06/26 09:52:15;;;;;;;8.68;2.13;;;;;;;31.38;37.12;100547.97;5056629;28;20040;-78
2021/06/26 09:55:40;;;;;;;7.78;2.83;;;;;;;31.34;37.33;100541.25;5055741;28;20052;-78
2021/06/26 09:58:54;;;;;;;11.48;2.92;;;;;;;31.30;37.14;100549.31;5056164;28;20064;-78
2021/06/26 10:01:59;;;;;;;8.27;2.60;;;;;;;31.12;37.59;100538.59;5056106;28;20040;-79
2021/06/26 10:05:04;;;;;;;8.65;2.45;;;;;;;31.49;36.99;100539.47;5056096;28;20060;-80
2021/06/26 10:08:09;;;;;;;9.48;3.40;;;;;;;31.31;37.16;100531.53;5056310;28;20056;-79
2021/06/26 10:11:14;;;;;;;5.60;2.53;;;;;;;31.34;37.68;100524.63;5056222;28;20059;-81
2021/06/26 10:14:19;;;;;;;11.50;3.58;;;;;;;30.96;38.52;100524.88;5056247;28;20115;-78
2021/06/26 10:17:24;;;;;;;11.15;3.30;;;;;;;31.10;38.18;100515.84;5056097;28;20392;-79
2021/06/26 10:20:29;;;;;;;38.78;32.28;;;;;;;31.33;38.17;100520.19;5056342;28;20048;-79
2021/06/26 10:23:35;;;;;;;13.90;7.00;;;;;;;31.22;37.88;100507.34;5044054;28;20045;-77
2021/06/26 10:26:43;;;;;;;11.73;3.60;;;;;;;31.46;37.14;100512.25;5056350;28;20487;-79
2021/06/26 10:29:47;;;;;;;5.72;2.42;;;;;;;31.31;37.18;100519.59;5056267;28;20052;-80
2021/06/26 10:32:55;;;;;;;6.57;2.70;;;;;;;30.81;37.40;100523.59;5055854;28;20044;-77
2021/06/26 10:36:01;;;;;;;8.30;2.25;;;;;;;30.80;37.48;100512.78;5056091;28;20048;-78
2021/06/26 10:39:25;;;;;;;6.88;2.17;;;;;;;31.11;36.78;100514.72;5055576;28;20045;-80
2021/06/26 10:42:34;;;;;;;11.43;2.42;;;;;;;31.09;37.24;100491.97;5055968;28;20044;-78
2021/06/26 10:45:39;;;;;;;8.23;1.70;;;;;;;31.17;37.20;100498.97;5055155;28;20372;-79
2021/06/26 10:48:56;;;;;;;9.10;2.00;;;;;;;31.11;35.53;100502.81;5056077;28;20048;-80
2021/06/26 10:52:11;;;;;;;7.30;1.58;;;;;;;30.91;36.08;100503.50;5056126;28;20056;-81
2021/06/26 10:55:33;;;;;;;9.73;1.55;;;;;;;30.85;36.69;100497.03;5055912;28;20063;-79
2021/06/26 10:58:40;;;;;;;6.45;2.30;;;;;;;31.12;35.96;100493.38;5056016;28;20052;-79
2021/06/26 11:01:58;;;;;;;5.80;1.52;;;;;;;30.94;35.44;100496.59;5056093;28;20052;-79
2021/06/26 11:05:04;;;;;;;8.93;1.50;;;;;;;30.85;35.63;100494.25;5054869;28;20044;-79
2021/06/26 11:08:16;;;;;;;5.70;1.15;;;;;;;31.03;36.06;100475.56;5055723;28;20384;-80
2021/06/26 11:11:27;;;;;;;7.70;1.38;;;;;;;31.18;35.55;100470.13;5054832;28;20456;-79
2021/06/26 11:14:32;;;;;;;9.05;1.65;;;;;;;31.25;35.19;100482.69;5055644;28;20052;-78
2021/06/26 11:17:44;;;;;;;5.28;1.73;;;;;;;30.87;35.60;100475.41;5054628;28;20052;-79
2021/06/26 11:20:49;;;;;;;8.65;2.35;;;;;;;30.71;36.17;100476.41;5055432;28;20051;-78
2021/06/26 11:23:53;;;;;;;21.00;12.23;;;;;;;30.77;36.38;100480.03;5055370;28;20056;-77
2021/06/26 11:26:58;;;;;;;6.22;1.42;;;;;;;30.69;35.34;100473.03;5054987;28;20048;-79
2021/06/26 11:30:06;;;;;;;4.90;1.08;;;;;;;30.78;36.59;100479.78;5055415;28;20060;-81
2021/06/26 11:33:10;;;;;;;5.70;1.02;;;;;;;30.81;35.87;100468.16;5054996;28;20059;-79
2021/06/26 11:36:15;;;;;;;6.80;1.00;;;;;;;30.81;35.27;100472.88;5054495;28;20064;-80
2021/06/26 11:39:20;;;;;;;4.75;1.20;;;;;;;30.93;35.04;100456.94;5055244;28;20071;-81
2021/06/26 11:42:26;;;;;;;2.97;1.42;;;;;;;31.06;35.23;100450.09;5052920;28;20048;-78
2021/06/26 11:45:42;;;;;;;5.13;1.17;;;;;;;31.11;35.07;100447.34;5051264;28;20064;-79
2021/06/26 11:48:50;;;;;;;5.40;1.02;;;;;;;30.91;34.06;100447.19;5055021;28;20072;-79
2021/06/26 11:51:55;;;;;;;10.43;1.25;;;;;;;30.70;34.56;100457.25;5048567;28;20072;-78
2021/06/26 11:55:00;;;;;;;9.52;1.23;;;;;;;30.73;34.58;100449.25;5035368;28;20049;-80
2021/06/26 11:58:04;;;;;;;6.10;1.08;;;;;;;30.81;33.43;100434.88;5034036;28;20052;-80
2021/06/26 12:01:11;;;;;;;4.82;1.20;;;;;;;30.97;34.24;100435.03;5057475;28;20064;-79
2021/06/26 12:04:31;;;;;;;6.95;1.08;;;;;;;30.78;34.72;100431.81;5040016;28;20139;-79
2021/06/26 12:07:37;;;;;;;4.65;0.80;;;;;;;30.97;34.50;100430.31;5054344;28;20056;-79
2021/06/26 12:10:44;;;;;;;3.90;1.10;;;;;;;30.91;34.57;100434.19;5053771;28;20514;-79
2021/06/26 12:13:50;;;;;;;3.80;1.10;;;;;;;30.73;36.26;100429.00;5050861;28;20044;-78
2021/06/26 12:17:06;;;;;;;6.78;1.05;;;;;;;30.85;35.01;100422.19;5053502;28;20052;-80
2021/06/26 12:20:13;;;;;;;9.40;1.17;;;;;;;31.06;35.06;100423.16;5054482;28;20420;-80
2021/06/26 12:23:18;;;;;;;3.20;1.15;;;;;;;30.89;34.65;100411.38;5053197;28;20048;-79
2021/06/26 12:26:24;;;;;;;6.85;4.88;;;;;;;30.72;34.81;100410.69;5032906;28;20056;-78
2021/06/26 12:29:29;;;;;;;5.32;1.67;;;;;;;30.82;34.77;100403.28;5032941;28;20397;-78
2021/06/26 12:32:35;;;;;;;4.15;0.88;;;;;;;31.04;34.66;100397.66;5032788;28;20147;-79
2021/06/26 12:35:40;;;;;;;3.83;0.98;;;;;;;31.09;34.67;100402.38;5032778;28;20516;-79
2021/06/26 12:38:45;;;;;;;4.32;1.08;;;;;;;31.22;35.33;100396.38;5034223;28;20060;-80
2021/06/26 12:42:04;;;;;;;7.53;1.20;;;;;;;31.31;34.76;100401.13;5033184;28;20111;-80
2021/06/26 12:45:10;;;;;;;6.85;1.02;;;;;;;31.15;34.96;100398.56;5033933;28;20068;-80
2021/06/26 12:48:18;;;;;;;2.70;0.90;;;;;;;31.04;34.06;100392.09;5045820;28;20040;-81
2021/06/26 12:51:39;;;;;;;3.75;1.20;;;;;;;31.15;34.43;100393.00;5053744;28;20051;-82
2021/06/26 12:54:55;;;;;;;5.13;0.98;;;;;;;31.18;33.77;100375.84;5053430;28;20063;-81
2021/06/26 12:58:08;;;;;;;5.63;1.08;;;;;;;31.43;32.99;100378.75;5044835;28;20060;-77
2021/06/26 13:01:12;;;;;;;8.27;1.45;;;;;;;31.64;33.07;100379.66;5053830;28;20055;-79
2021/06/26 13:04:35;;;;;;;5.00;1.15;;;;;;;31.68;33.13;100375.25;5045105;28;20399;-78
2021/06/26 13:07:39;;;;;;;2.92;1.02;;;;;;;31.32;33.79;100372.31;5032959;28;20519;-78
2021/06/26 13:10:50;;;;;;;5.32;1.10;;;;;;;31.41;34.01;100375.38;5047825;28;20048;-78
2021/06/26 13:13:54;;;;;;;11.77;1.20;;;;;;;31.44;33.54;100355.44;5034079;28;20052;-77
2021/06/26 13:16:59;;;;;;;4.95;0.80;;;;;;;31.34;33.93;100361.75;5046030;28;20052;-78
2021/06/26 13:20:04;;;;;;;5.95;1.05;;;;;;;31.49;33.94;100355.47;5051013;28;20056;-77
2021/06/26 13:23:08;;;;;;;6.00;1.08;;;;;;;31.51;34.28;100353.25;5052999;28;20067;-78
2021/06/26 13:26:13;;;;;;;5.80;1.80;;;;;;;31.26;34.30;100359.50;5045265;28;20400;-78
2021/06/26 13:29:18;;;;;;;4.15;1.30;;;;;;;31.28;34.40;100359.25;5042508;28;20056;-78
2021/06/26 13:32:22;;;;;;;5.25;1.10;;;;;;;31.45;34.16;100355.16;5046662;28;20059;-77
2021/06/26 13:35:27;;;;;;;7.22;1.08;;;;;;;31.59;34.18;100355.50;5045195;28;20048;-78
2021/06/26 13:38:31;;;;;;;3.10;1.00;;;;;;;31.51;34.46;100353.25;5044274;28;20404;-78
2021/06/26 13:41:35;;;;;;;5.38;1.00;;;;;;;31.58;34.12;100353.03;5048830;28;20048;-79
2021/06/26 13:44:39;;;;;;;6.07;1.33;;;;;;;31.49;33.36;100342.44;5048734;28;20064;-78
2021/06/26 13:47:44;;;;;;;3.35;1.00;;;;;;;31.58;33.14;100342.72;5048035;28;20510;-79
2021/06/26 13:50:49;;;;;;;3.92;0.95;;;;;;;31.51;33.21;100336.59;5033012;28;20100;-80
2021/06/26 13:53:54;;;;;;;4.25;1.10;;;;;;;31.49;33.77;100339.66;5033217;28;20507;-79
2021/06/26 13:56:58;;;;;;;6.38;1.00;;;;;;;31.63;33.83;100345.50;5032837;28;20052;-80
2021/06/26 14:00:05;;;;;;;4.65;0.95;;;;;;;31.64;32.92;100335.25;5033087;28;20052;-81
2021/06/26 14:03:18;;;;;;;6.70;1.02;;;;;;;31.60;33.79;100334.97;5043733;28;20040;-81
2021/06/26 14:06:23;;;;;;;16.98;13.55;;;;;;;31.60;33.38;100334.97;5043374;28;20052;-80
2021/06/26 14:09:27;;;;;;;11.05;4.53;;;;;;;31.48;33.04;100326.03;5033128;28;20423;-78
2021/06/26 14:12:32;;;;;;;4.30;1.00;;;;;;;31.68;33.38;100330.84;5048119;28;20048;-79
2021/06/26 14:15:36;;;;;;;3.75;1.02;;;;;;;31.78;33.31;100316.97;5047164;28;20056;-79
2021/06/26 14:18:41;;;;;;;5.30;1.13;;;;;;;31.70;33.13;100311.97;5036483;28;20519;-80
2021/06/26 14:21:45;;;;;;;5.22;1.27;;;;;;;31.84;33.28;100313.94;5037955;28;20049;-79
2021/06/26 14:24:50;;;;;;;9.43;2.10;;;;;;;31.74;33.80;100319.47;5047680;28;20091;-79